createdAt,value
2019-05-01T00:01:45.489Z,72.09
2019-05-01T00:04:38.949Z,72.45
2019-05-01T00:07:15.257Z,72.92
2019-05-01T00:09:43.706Z,72.85
2019-05-01T00:12:11.629Z,73.18
2019-05-01T00:14:39.481Z,73.18
2019-05-01T00:17:07.298Z,73.12
2019-05-01T00:19:35.134Z,73.50
2019-05-01T00:22:02.977Z,74.53
2019-05-01T00:24:30.931Z,74.67
2019-05-01T00:26:58.774Z,74.83
2019-05-01T00:29:26.624Z,74.91
2019-05-01T00:31:54.535Z,75.16
2019-05-01T00:34:22.414Z,75.17
2019-05-01T00:36:50.246Z,75.72
2019-05-01T00:39:18.733Z,75.85
2019-05-01T00:41:46.614Z,75.96
2019-05-01T00:44:14.538Z,75.92
2019-05-01T00:46:42.361Z,75.83
2019-05-01T00:49:10.246Z,75.73
2019-05-01T00:51:38.121Z,75.27
2019-05-01T00:54:06.070Z,74.86
2019-05-01T00:56:56.488Z,75.17
2019-05-01T00:59:41.005Z,75.04
2019-05-01T01:02:28.407Z,74.58
2019-05-01T01:04:56.316Z,74.26
2019-05-01T01:07:24.141Z,73.61
2019-05-01T01:09:51.989Z,73.38
2019-05-01T01:12:19.762Z,72.98
2019-05-01T01:14:47.647Z,72.87
2019-05-01T01:17:15.753Z,72.99
2019-05-01T01:19:43.583Z,72.98
2019-05-01T01:22:11.477Z,73.00
2019-05-01T01:24:39.497Z,73.12
2019-05-01T01:27:07.277Z,73.33
2019-05-01T01:29:35.143Z,73.13
2019-05-01T01:32:02.980Z,73.24
2019-05-01T01:34:30.844Z,73.61
2019-05-01T01:36:58.695Z,73.52
2019-05-01T01:39:26.564Z,73.46
2019-05-01T01:41:54.964Z,73.41
2019-05-01T01:44:47.311Z,73.42
2019-05-01T01:47:15.454Z,73.36
2019-05-01T01:49:43.370Z,73.53
2019-05-01T01:52:12.054Z,74.59
2019-05-01T01:54:42.508Z,74.97
2019-05-01T01:57:10.343Z,75.75
2019-05-01T01:59:38.703Z,76.17
2019-05-01T02:02:14.378Z,76.34
2019-05-01T02:05:04.820Z,76.68
2019-05-01T02:07:32.913Z,76.42
2019-05-01T02:10:01.383Z,75.69
2019-05-01T02:12:29.482Z,76.09
2019-05-01T02:14:57.304Z,76.44
2019-05-01T02:17:25.126Z,76.61
2019-05-01T02:19:53.006Z,76.55
2019-05-01T02:22:20.786Z,76.04
2019-05-01T02:24:48.590Z,75.24
2019-05-01T02:27:22.004Z,74.66
2019-05-01T02:29:53.920Z,73.59
2019-05-01T02:32:24.849Z,73.68
2019-05-01T02:34:54.840Z,73.51
2019-05-01T02:37:25.303Z,72.78
2019-05-01T02:39:57.008Z,72.37
2019-05-01T02:42:29.796Z,72.58
2019-05-01T02:45:02.374Z,72.67
2019-05-01T02:47:35.443Z,72.03
2019-05-01T02:50:07.621Z,71.47
2019-05-01T02:52:38.923Z,71.67
2019-05-01T02:55:29.572Z,71.32
2019-05-01T02:57:58.409Z,71.07
2019-05-01T03:00:26.670Z,70.99
2019-05-01T03:02:54.701Z,71.30
2019-05-01T03:05:22.551Z,71.28
2019-05-01T03:07:50.674Z,71.20
2019-05-01T03:10:18.830Z,71.20
2019-05-01T03:12:50.673Z,71.19
2019-05-01T03:15:21.229Z,71.41
2019-05-01T03:18:18.047Z,71.17
2019-05-01T03:20:54.885Z,71.73
2019-05-01T03:23:27.309Z,71.23
2019-05-01T03:25:56.121Z,70.94
2019-05-01T03:28:24.411Z,71.30
2019-05-01T03:30:52.654Z,70.68
2019-05-01T03:33:20.561Z,70.52
2019-05-01T03:35:48.699Z,70.31
2019-05-01T03:38:17.405Z,69.16
2019-05-01T03:40:45.532Z,69.69
2019-05-01T03:43:13.514Z,69.81
2019-05-01T03:45:42.113Z,69.79
2019-05-01T03:48:09.975Z,70.77
2019-05-01T03:50:38.480Z,71.44
2019-05-01T03:53:06.523Z,72.58
2019-05-01T03:55:34.340Z,73.01
2019-05-01T03:58:03.497Z,72.56
2019-05-01T04:00:45.799Z,72.96
2019-05-01T04:03:36.630Z,73.06
2019-05-01T04:06:04.916Z,73.27
2019-05-01T04:08:33.060Z,73.62
2019-05-01T04:11:01.027Z,73.92
2019-05-01T04:13:29.016Z,74.74
2019-05-01T04:15:57.314Z,75.44
2019-05-01T04:18:26.414Z,75.30
2019-05-01T04:20:54.732Z,76.43
2019-05-01T04:23:25.402Z,77.64
2019-05-01T04:25:53.803Z,77.56
2019-05-01T04:28:44.266Z,77.98
2019-05-01T04:31:28.026Z,77.10
2019-05-01T04:33:58.101Z,76.71
2019-05-01T04:36:31.489Z,76.75
2019-05-01T04:38:59.898Z,77.54
2019-05-01T04:41:28.021Z,77.34
2019-05-01T04:43:55.918Z,77.62
2019-05-01T04:46:23.770Z,77.98
2019-05-01T04:48:51.652Z,77.69
2019-05-01T04:51:19.493Z,77.43
2019-05-01T04:53:47.346Z,77.65
2019-05-01T04:56:15.453Z,77.69
2019-05-01T04:58:43.481Z,77.55
2019-05-01T05:01:11.515Z,78.13
2019-05-01T05:03:39.712Z,78.27
2019-05-01T05:06:07.947Z,77.95
2019-05-01T05:08:35.735Z,78.04
2019-05-01T05:11:09.431Z,78.32
2019-05-01T05:13:46.763Z,78.55
2019-05-01T05:16:25.691Z,77.84
2019-05-01T05:18:53.600Z,77.54
2019-05-01T05:21:21.523Z,77.87
2019-05-01T05:23:49.595Z,78.23
2019-05-01T05:26:17.601Z,76.62
2019-05-01T05:28:47.502Z,76.12
2019-05-01T05:31:17.262Z,76.01
2019-05-01T05:33:47.971Z,74.91
2019-05-01T05:36:16.893Z,74.36
2019-05-01T05:39:14.635Z,74.44
2019-05-01T05:41:43.281Z,73.29
2019-05-01T05:44:11.438Z,73.37
2019-05-01T05:46:39.584Z,71.82
2019-05-01T05:49:07.778Z,70.56
2019-05-01T05:51:51.347Z,71.15
2019-05-01T05:54:40.362Z,70.57
2019-05-01T05:57:20.228Z,70.72
2019-05-01T05:59:55.431Z,70.38
2019-05-01T06:02:35.681Z,69.24
2019-05-01T06:05:18.764Z,69.15
2019-05-01T06:08:07.362Z,68.86
2019-05-01T06:10:47.283Z,67.41
2019-05-01T06:13:37.999Z,66.75
2019-05-01T06:16:16.192Z,65.71
2019-05-01T06:18:52.578Z,61.52
2019-05-01T06:21:28.175Z,59.71
2019-05-01T06:24:06.581Z,57.93
2019-05-01T06:26:38.014Z,56.32
2019-05-01T06:29:06.549Z,55.10
2019-05-01T06:31:35.562Z,56.48
2019-05-01T06:34:03.513Z,56.81
2019-05-01T06:36:32.100Z,56.72
2019-05-01T06:39:01.489Z,57.42
2019-05-01T06:41:42.173Z,57.16
2019-05-01T06:44:19.445Z,57.66
2019-05-01T06:47:07.457Z,57.67
2019-05-01T06:50:01.169Z,56.54
2019-05-01T06:52:32.249Z,55.97
2019-05-01T06:55:00.496Z,52.93
2019-05-01T06:57:29.684Z,50.44
2019-05-01T07:00:03.130Z,50.92
2019-05-01T07:02:34.979Z,51.76
2019-05-01T07:05:01.585Z,51.11
2019-05-01T07:07:31.753Z,48.26
2019-05-01T07:10:00.514Z,48.20
2019-05-01T07:12:31.365Z,50.02
2019-05-01T07:15:01.311Z,51.52
2019-05-01T07:17:29.335Z,51.16
2019-05-01T07:20:16.814Z,50.62
2019-05-01T07:22:46.586Z,49.74
2019-05-01T07:25:15.035Z,49.07
2019-05-01T07:27:42.905Z,49.23
2019-05-01T07:30:33.120Z,47.24
2019-05-01T07:33:01.403Z,44.54
2019-05-01T07:35:32.988Z,41.34
2019-05-01T07:38:02.357Z,38.65
2019-05-01T07:40:30.242Z,37.61
2019-05-01T07:43:04.333Z,37.81
2019-05-01T07:45:54.690Z,37.79
2019-05-01T07:48:36.074Z,37.61
2019-05-01T07:51:07.019Z,32.64
2019-05-01T07:53:36.822Z,28.38
2019-05-01T07:56:07.646Z,26.49
2019-05-01T07:58:35.813Z,25.71
2019-05-01T08:01:13.143Z,25.77
2019-05-01T08:03:42.696Z,27.98
2019-05-01T08:06:08.662Z,31.43
2019-05-01T08:08:39.650Z,35.62
2019-05-01T08:11:10.153Z,38.58
2019-05-01T08:13:36.368Z,40.40
2019-05-01T08:16:07.130Z,42.16
2019-05-01T08:18:40.990Z,43.74
2019-05-01T08:21:26.212Z,45.76
2019-05-01T08:23:52.716Z,47.83
2019-05-01T08:26:20.541Z,48.96
2019-05-01T08:29:20.118Z,50.83
2019-05-01T08:32:10.305Z,51.51
2019-05-01T08:34:48.404Z,51.26
2019-05-01T08:37:08.347Z,51.25
2019-05-01T08:39:39.775Z,50.17
2019-05-01T08:42:07.062Z,50.52
2019-05-01T08:44:43.289Z,50.92
2019-05-01T08:47:20.780Z,48.16
2019-05-01T08:50:01.859Z,45.46
2019-05-01T08:52:29.651Z,38.98
2019-05-01T08:54:57.471Z,34.40
2019-05-01T08:57:29.014Z,29.19
2019-05-01T09:00:00.391Z,25.69
2019-05-01T09:02:25.722Z,23.67
2019-05-01T09:05:02.111Z,24.62
2019-05-01T09:07:24.157Z,26.06
2019-05-01T09:09:52.045Z,28.25
2019-05-01T09:12:19.837Z,31.06
2019-05-01T09:14:47.747Z,33.68
2019-05-01T09:17:15.597Z,37.44
2019-05-01T09:19:43.496Z,39.38
2019-05-01T09:22:11.446Z,39.18
2019-05-01T09:24:39.775Z,37.12
2019-05-01T09:27:33.184Z,32.75
2019-05-01T09:30:07.454Z,27.15
2019-05-01T09:32:35.301Z,21.72
2019-05-01T09:35:15.079Z,24.35
2019-05-01T09:37:33.639Z,27.37
2019-05-01T09:40:04.086Z,25.98
2019-05-01T09:42:31.212Z,22.30
2019-05-01T09:45:01.166Z,19.21
2019-05-01T09:47:29.005Z,17.09
2019-05-01T09:49:57.377Z,16.68
2019-05-01T09:53:00.989Z,19.20
2019-05-01T09:55:35.495Z,19.68
2019-05-01T09:58:03.320Z,15.73
2019-05-01T10:00:32.585Z,16.22
2019-05-01T10:03:00.420Z,13.98
2019-05-01T10:05:29.238Z,14.03
2019-05-01T10:08:00.075Z,13.60
2019-05-01T10:10:29.249Z,14.13
2019-05-01T10:12:56.782Z,14.57
2019-05-01T10:15:24.670Z,14.81
2019-05-01T10:17:52.563Z,12.42
2019-05-01T10:20:20.415Z,11.50
2019-05-01T10:22:48.276Z,11.44
2019-05-01T10:25:16.503Z,13.17
2019-05-01T10:27:52.742Z,13.40
2019-05-01T10:30:31.615Z,14.51
2019-05-01T10:33:06.723Z,16.07
2019-05-01T10:36:05.957Z,18.84
2019-05-01T10:38:33.757Z,20.88
2019-05-01T10:41:04.189Z,21.87
2019-05-01T10:43:31.304Z,21.08
2019-05-01T10:45:59.157Z,21.38
2019-05-01T10:48:27.007Z,20.87
2019-05-01T10:50:54.801Z,21.03
2019-05-01T10:53:22.759Z,20.54
2019-05-01T10:55:50.606Z,20.85
2019-05-01T10:58:20.250Z,18.93
2019-05-01T11:00:51.213Z,15.45
2019-05-01T11:03:19.051Z,16.25
2019-05-01T11:05:55.786Z,15.00
2019-05-01T11:08:17.219Z,13.75
2019-05-01T11:10:45.045Z,14.40
2019-05-01T11:13:12.922Z,13.37
2019-05-01T11:15:40.770Z,12.89
2019-05-01T11:18:08.722Z,13.55
2019-05-01T11:20:36.696Z,15.59
2019-05-01T11:23:04.678Z,15.80
2019-05-01T11:25:33.107Z,15.01
2019-05-01T11:28:00.940Z,14.74
2019-05-01T11:30:28.816Z,13.65
2019-05-01T11:33:05.189Z,12.64
2019-05-01T11:35:51.003Z,12.74
2019-05-01T11:38:44.466Z,14.25
2019-05-01T11:41:25.842Z,13.22
2019-05-01T11:43:53.803Z,12.10
2019-05-01T11:46:21.627Z,12.10
2019-05-01T11:48:49.435Z,12.92
2019-05-01T11:51:17.263Z,12.19
2019-05-01T11:53:45.064Z,11.91
2019-05-01T11:56:12.948Z,12.21
2019-05-01T11:58:40.771Z,13.37
2019-05-01T12:01:10.467Z,13.00
2019-05-01T12:03:38.323Z,11.67
2019-05-01T12:06:06.145Z,12.46
2019-05-01T12:08:34.036Z,11.50
2019-05-01T12:11:03.823Z,11.16
2019-05-01T12:13:43.206Z,11.05
2019-05-01T12:16:08.393Z,10.52
2019-05-01T12:18:36.183Z,10.62
2019-05-01T12:21:03.997Z,11.45
2019-05-01T12:23:31.773Z,13.62
2019-05-01T12:25:59.581Z,16.63
2019-05-01T12:28:27.383Z,19.34
2019-05-01T12:30:55.226Z,21.39
2019-05-01T12:33:22.997Z,20.85
2019-05-01T12:35:53.023Z,21.34
2019-05-01T12:38:20.863Z,19.54
2019-05-01T12:41:06.913Z,16.48
2019-05-01T12:43:34.709Z,15.35
2019-05-01T12:46:02.601Z,13.21
2019-05-01T12:48:30.420Z,13.12
2019-05-01T12:50:58.331Z,12.87
2019-05-01T12:53:38.284Z,14.52
2019-05-01T12:56:18.407Z,15.83
2019-05-01T12:58:47.731Z,15.26
2019-05-01T13:01:15.657Z,14.62
2019-05-01T13:03:43.482Z,14.87
2019-05-01T13:06:14.306Z,14.34
2019-05-01T13:08:41.050Z,15.46
2019-05-01T13:11:08.872Z,15.30
2019-05-01T13:13:36.698Z,16.39
2019-05-01T13:16:04.546Z,15.76
2019-05-01T13:18:32.341Z,17.04
2019-05-01T13:21:00.164Z,16.70
2019-05-01T13:23:28.024Z,16.31
2019-05-01T13:26:00.826Z,16.22
2019-05-01T13:28:42.134Z,16.21
2019-05-01T13:31:41.967Z,16.89
2019-05-01T13:34:10.219Z,13.83
2019-05-01T13:36:38.086Z,12.42
2019-05-01T13:39:09.474Z,12.46
2019-05-01T13:41:37.258Z,13.12
2019-05-01T13:44:05.221Z,13.29
2019-05-01T13:46:33.051Z,14.38
2019-05-01T13:49:00.880Z,16.47
2019-05-01T13:51:28.778Z,19.87
2019-05-01T13:53:56.693Z,18.44
2019-05-01T13:56:24.590Z,17.60
2019-05-01T13:58:52.417Z,15.91
2019-05-01T14:01:20.467Z,16.32
2019-05-01T14:03:48.264Z,17.07
2019-05-01T14:06:16.066Z,17.39
2019-05-01T14:08:43.884Z,18.17
2019-05-01T14:11:11.731Z,20.90
2019-05-01T14:13:39.547Z,23.61
2019-05-01T14:16:07.357Z,25.56
2019-05-01T14:18:35.193Z,26.03
2019-05-01T14:21:12.442Z,27.44
2019-05-01T14:23:56.636Z,28.38
2019-05-01T14:26:24.450Z,28.71
2019-05-01T14:28:52.215Z,29.24
2019-05-01T14:31:20.053Z,30.51
2019-05-01T14:33:47.849Z,31.37
2019-05-01T14:36:15.687Z,31.92
2019-05-01T14:38:43.497Z,32.05
2019-05-01T14:41:11.345Z,32.25
2019-05-01T14:43:39.249Z,32.73
2019-05-01T14:46:07.082Z,33.07
2019-05-01T14:48:34.906Z,32.76
2019-05-01T14:51:03.044Z,32.74
2019-05-01T14:53:30.876Z,32.53
2019-05-01T14:55:58.668Z,33.52
2019-05-01T14:58:26.476Z,33.32
2019-05-01T15:00:54.298Z,33.52
2019-05-01T15:03:22.154Z,34.05
2019-05-01T15:05:49.969Z,34.40
2019-05-01T15:08:17.774Z,34.41
2019-05-01T15:10:45.653Z,34.25
2019-05-01T15:13:28.753Z,34.36
2019-05-01T15:16:22.352Z,34.50
2019-05-01T15:19:09.722Z,34.71
2019-05-01T15:21:37.527Z,34.61
2019-05-01T15:24:05.506Z,33.55
2019-05-01T15:26:33.344Z,34.03
2019-05-01T15:29:01.222Z,34.30
2019-05-01T15:31:29.147Z,34.22
2019-05-01T15:33:56.960Z,34.47
2019-05-01T15:36:24.783Z,34.74
2019-05-01T15:38:52.605Z,34.45
2019-05-01T15:41:52.169Z,34.66
2019-05-01T15:44:26.278Z,34.40
2019-05-01T15:46:54.123Z,34.33
2019-05-01T15:49:21.954Z,34.60
2019-05-01T15:51:49.876Z,34.51
2019-05-01T15:54:17.676Z,34.23
2019-05-01T15:56:45.515Z,34.69
2019-05-01T15:59:13.372Z,34.98
2019-05-01T16:01:41.187Z,34.93
2019-05-01T16:04:09.004Z,34.85
2019-05-01T16:06:36.804Z,35.24
2019-05-01T16:09:06.522Z,35.58
2019-05-01T16:11:54.120Z,36.05
2019-05-01T16:14:22.145Z,35.98
2019-05-01T16:16:49.985Z,35.89
2019-05-01T16:19:17.836Z,36.01
2019-05-01T16:21:45.707Z,35.78
2019-05-01T16:24:13.503Z,36.28
2019-05-01T16:26:41.335Z,36.46
2019-05-01T16:29:09.138Z,35.85
2019-05-01T16:31:36.978Z,36.15
2019-05-01T16:34:04.789Z,36.72
2019-05-01T16:36:32.681Z,37.16
2019-05-01T16:39:18.549Z,37.52
2019-05-01T16:41:46.906Z,37.57
2019-05-01T16:44:15.611Z,38.14
2019-05-01T16:46:43.434Z,38.05
2019-05-01T16:49:11.302Z,37.78
2019-05-01T16:51:39.101Z,38.32
2019-05-01T16:54:08.046Z,38.12
2019-05-01T16:56:36.011Z,38.35
2019-05-01T16:59:04.370Z,38.45
2019-05-01T17:02:03.682Z,38.71
2019-05-01T17:05:02.936Z,38.79
2019-05-01T17:07:48.804Z,39.08
2019-05-01T17:10:31.643Z,39.23
2019-05-01T17:12:59.486Z,39.79
2019-05-01T17:15:31.826Z,40.04
2019-05-01T17:17:59.660Z,40.58
2019-05-01T17:20:27.797Z,40.59
2019-05-01T17:22:55.645Z,41.02
2019-05-01T17:25:23.480Z,41.21
2019-05-01T17:27:51.310Z,41.28
2019-05-01T17:30:35.794Z,41.87
2019-05-01T17:33:03.619Z,42.47
2019-05-01T17:35:31.502Z,42.85
2019-05-01T17:37:59.291Z,43.20
2019-05-01T17:40:27.195Z,43.51
2019-05-01T17:42:55.042Z,43.66
2019-05-01T17:45:23.091Z,44.21
2019-05-01T17:47:52.845Z,44.78
2019-05-01T17:50:21.410Z,45.39
2019-05-01T17:52:50.298Z,45.87
2019-05-01T17:55:18.183Z,46.19
2019-05-01T17:57:46.046Z,46.62
2019-05-01T18:00:33.577Z,46.61
2019-05-01T18:03:08.201Z,47.07
2019-05-01T18:06:13.531Z,47.34
2019-05-01T18:08:41.381Z,47.33
2019-05-01T18:11:13.598Z,48.14
2019-05-01T18:13:38.971Z,48.02
2019-05-01T18:16:06.760Z,48.43
2019-05-01T18:18:34.579Z,48.60
2019-05-01T18:21:02.591Z,48.95
2019-05-01T18:23:49.474Z,49.22
2019-05-01T18:26:38.896Z,49.52
2019-05-01T18:29:16.838Z,49.56
2019-05-01T18:31:44.764Z,49.92
2019-05-01T18:34:12.581Z,50.19
2019-05-01T18:36:46.031Z,50.48
2019-05-01T18:39:25.983Z,50.66
2019-05-01T18:41:55.765Z,51.30
2019-05-01T18:44:23.609Z,51.72
2019-05-01T18:46:51.640Z,51.55
2019-05-01T18:49:19.481Z,52.05
2019-05-01T18:51:48.150Z,52.09
2019-05-01T18:54:15.925Z,52.73
2019-05-01T18:56:43.795Z,52.90
2019-05-01T18:59:11.599Z,53.00
2019-05-01T19:01:39.422Z,52.95
2019-05-01T19:04:07.238Z,53.19
2019-05-01T19:06:41.280Z,53.38
2019-05-01T19:09:14.859Z,53.61
2019-05-01T19:11:37.557Z,53.84
2019-05-01T19:14:05.698Z,53.74
2019-05-01T19:16:33.602Z,53.64
2019-05-01T19:19:03.866Z,53.93
2019-05-01T19:21:32.818Z,54.10
2019-05-01T19:24:02.362Z,54.15
2019-05-01T19:26:30.480Z,54.31
2019-05-01T19:28:58.564Z,54.70
2019-05-01T19:31:26.619Z,54.94
2019-05-01T19:33:54.520Z,55.48
2019-05-01T19:36:22.336Z,55.68
2019-05-01T19:38:50.218Z,55.83
2019-05-01T19:41:18.079Z,56.05
2019-05-01T19:43:45.963Z,56.22
2019-05-01T19:46:13.867Z,56.39
2019-05-01T19:48:45.273Z,56.46
2019-05-01T19:51:11.508Z,56.24
2019-05-01T19:53:39.480Z,56.30
2019-05-01T19:56:07.482Z,56.58
2019-05-01T19:58:35.431Z,56.87
2019-05-01T20:01:04.928Z,57.39
2019-05-01T20:03:36.056Z,57.83
2019-05-01T20:06:05.341Z,57.82
2019-05-01T20:08:32.786Z,57.68
2019-05-01T20:11:00.720Z,57.86
2019-05-01T20:13:28.625Z,58.18
2019-05-01T20:15:56.563Z,58.41
2019-05-01T20:18:24.397Z,58.63
2019-05-01T20:20:52.327Z,59.09
2019-05-01T20:23:20.163Z,59.09
2019-05-01T20:25:51.069Z,59.43
2019-05-01T20:28:19.862Z,59.56
2019-05-01T20:30:49.580Z,59.36
2019-05-01T20:33:17.144Z,59.31
2019-05-01T20:35:44.938Z,59.55
2019-05-01T20:38:12.758Z,59.42
2019-05-01T20:40:40.595Z,59.33
2019-05-01T20:43:08.428Z,59.30
2019-05-01T20:45:36.348Z,59.31
2019-05-01T20:48:04.324Z,59.59
2019-05-01T20:50:32.158Z,59.69
2019-05-01T20:53:00.055Z,59.62
2019-05-01T20:55:27.727Z,59.88
2019-05-01T20:58:15.086Z,60.33
2019-05-01T21:00:43.308Z,60.82
2019-05-01T21:03:14.231Z,60.74
2019-05-01T21:05:52.564Z,61.01
2019-05-01T21:08:51.909Z,61.56
2019-05-01T21:11:23.882Z,61.37
2019-05-01T21:13:56.663Z,62.11
2019-05-01T21:16:21.775Z,62.39
2019-05-01T21:18:49.571Z,62.61
2019-05-01T21:21:17.405Z,62.98
2019-05-01T21:23:48.174Z,63.25
2019-05-01T21:26:15.842Z,63.45
2019-05-01T21:28:44.876Z,63.70
2019-05-01T21:31:13.808Z,63.94
2019-05-01T21:33:46.343Z,64.20
2019-05-01T21:36:11.385Z,64.37
2019-05-01T21:38:39.178Z,64.63
2019-05-01T21:41:07.135Z,65.04
2019-05-01T21:43:37.021Z,65.09
2019-05-01T21:46:04.700Z,65.34
2019-05-01T21:48:33.401Z,65.28
2019-05-01T21:51:03.382Z,65.15
2019-05-01T21:53:32.793Z,65.22
2019-05-01T21:56:02.119Z,65.55
2019-05-01T21:58:33.271Z,66.07
2019-05-01T22:01:01.145Z,66.15
2019-05-01T22:03:29.221Z,66.04
2019-05-01T22:05:57.038Z,65.95
2019-05-01T22:08:25.933Z,65.71
2019-05-01T22:10:57.488Z,65.58
2019-05-01T22:13:24.345Z,64.94
2019-05-01T22:15:58.330Z,64.87
2019-05-01T22:18:34.941Z,64.90
2019-05-01T22:21:18.074Z,64.51
2019-05-01T22:24:04.200Z,64.56
2019-05-01T22:26:34.573Z,64.52
2019-05-01T22:29:04.877Z,64.68
2019-05-01T22:32:01.237Z,64.82
2019-05-01T22:34:54.245Z,64.76
2019-05-01T22:37:22.210Z,65.36
2019-05-01T22:39:55.543Z,65.58
2019-05-01T22:42:23.369Z,65.95
2019-05-01T22:44:51.171Z,66.11
2019-05-01T22:47:19.087Z,66.29
2019-05-01T22:49:46.996Z,66.35
2019-05-01T22:52:14.892Z,66.67
2019-05-01T22:54:44.807Z,66.89
2019-05-01T22:57:12.982Z,67.20
2019-05-01T22:59:40.775Z,67.04
2019-05-01T23:02:15.570Z,67.22
2019-05-01T23:04:43.353Z,67.64
2019-05-01T23:07:11.763Z,68.04
2019-05-01T23:09:40.950Z,68.38
2019-05-01T23:12:08.748Z,68.55
2019-05-01T23:14:36.592Z,69.06
2019-05-01T23:17:22.813Z,69.62
2019-05-01T23:19:50.749Z,70.08
2019-05-01T23:22:19.292Z,70.06
2019-05-01T23:24:47.144Z,70.30
2019-05-01T23:27:14.956Z,70.61
2019-05-01T23:29:42.723Z,70.94
2019-05-01T23:32:11.533Z,71.38
2019-05-01T23:34:39.351Z,71.66
2019-05-01T23:37:07.276Z,71.59
2019-05-01T23:39:40.257Z,71.76
2019-05-01T23:42:04.825Z,71.70
2019-05-01T23:44:32.630Z,71.90
2019-05-01T23:47:00.408Z,72.02
2019-05-01T23:49:28.236Z,72.05
2019-05-01T23:51:58.722Z,72.40
2019-05-01T23:54:25.707Z,72.14
2019-05-01T23:56:53.459Z,72.29
2019-05-01T23:59:21.392Z,72.50
